createdAt,value
2023-01-29T00:01:31.451Z,69.54
2023-01-29T00:03:58.994Z,69.34
2023-01-29T00:06:26.541Z,69.42
2023-01-29T00:08:54.072Z,69.03
2023-01-29T00:11:24.102Z,68.97
2023-01-29T00:13:52.260Z,68.96
2023-01-29T00:16:20.145Z,69.04
2023-01-29T00:18:47.779Z,69.55
2023-01-29T00:21:17.340Z,70.39
2023-01-29T00:23:45.644Z,69.53
2023-01-29T00:26:13.798Z,68.99
2023-01-29T00:28:42.649Z,68.74
2023-01-29T00:31:10.431Z,69.02
2023-01-29T00:33:38.479Z,69.13
2023-01-29T00:36:07.228Z,69.10
2023-01-29T00:38:35.394Z,69.18
2023-01-29T00:41:25.339Z,68.90
2023-01-29T00:44:11.841Z,68.69
2023-01-29T00:46:39.468Z,68.92
2023-01-29T00:49:08.055Z,68.96
2023-01-29T00:51:36.111Z,68.46
2023-01-29T00:54:04.383Z,68.53
2023-01-29T00:56:31.976Z,68.90
2023-01-29T00:59:01.069Z,68.86
2023-01-29T01:01:46.261Z,69.04
2023-01-29T01:04:14.724Z,68.60
2023-01-29T01:06:43.465Z,68.73
2023-01-29T01:09:29.376Z,68.66
2023-01-29T01:11:56.960Z,69.07
2023-01-29T01:14:25.860Z,69.19
2023-01-29T01:16:53.354Z,68.99
2023-01-29T01:19:20.847Z,68.57
2023-01-29T01:21:48.424Z,68.50
2023-01-29T01:24:16.156Z,68.43
2023-01-29T01:26:43.827Z,68.44
2023-01-29T01:29:11.338Z,67.67
2023-01-29T01:31:40.307Z,67.23
2023-01-29T01:34:07.820Z,66.85
2023-01-29T01:36:35.409Z,68.52
2023-01-29T01:39:02.905Z,67.53
2023-01-29T01:41:30.699Z,67.15
2023-01-29T01:44:00.162Z,66.47
2023-01-29T01:46:30.262Z,66.95
2023-01-29T01:49:02.810Z,68.21
2023-01-29T01:51:33.080Z,67.39
2023-01-29T01:54:04.867Z,68.06
2023-01-29T01:56:40.852Z,67.61
2023-01-29T01:59:10.778Z,66.93
2023-01-29T02:01:41.155Z,66.86
2023-01-29T02:04:31.591Z,66.94
2023-01-29T02:07:18.935Z,67.21
2023-01-29T02:09:52.402Z,67.26
2023-01-29T02:12:22.058Z,67.38
2023-01-29T02:14:49.685Z,67.47
2023-01-29T02:17:20.214Z,66.93
2023-01-29T02:20:03.540Z,66.86
2023-01-29T02:22:47.231Z,70.42
2023-01-29T02:25:37.016Z,68.42
2023-01-29T02:28:21.812Z,69.64
2023-01-29T02:30:56.386Z,69.02
2023-01-29T02:33:32.389Z,67.15
2023-01-29T02:36:11.759Z,67.53
2023-01-29T02:38:46.634Z,68.69
2023-01-29T02:41:17.372Z,69.18
2023-01-29T02:43:48.875Z,67.52
2023-01-29T02:46:23.511Z,67.55
2023-01-29T02:48:58.716Z,67.41
2023-01-29T02:51:35.481Z,67.38
2023-01-29T02:54:08.579Z,68.67
2023-01-29T02:56:39.956Z,70.52
2023-01-29T02:59:12.630Z,70.40
2023-01-29T03:01:45.520Z,70.74
2023-01-29T03:04:19.396Z,69.53
2023-01-29T03:06:51.968Z,69.42
2023-01-29T03:09:25.522Z,67.94
2023-01-29T03:11:56.063Z,67.59
2023-01-29T03:14:59.789Z,67.69
2023-01-29T03:17:35.072Z,66.69
2023-01-29T03:20:08.036Z,69.13
2023-01-29T03:22:38.984Z,70.41
2023-01-29T03:25:26.932Z,69.58
2023-01-29T03:28:15.337Z,70.11
2023-01-29T03:31:07.107Z,69.61
2023-01-29T03:33:43.234Z,70.02
2023-01-29T03:36:15.856Z,68.88
2023-01-29T03:38:43.830Z,69.86
2023-01-29T03:41:19.440Z,69.40
2023-01-29T03:43:53.892Z,70.11
2023-01-29T03:46:29.268Z,71.29
2023-01-29T03:49:02.471Z,72.74
2023-01-29T03:51:36.091Z,70.84
2023-01-29T03:54:10.822Z,72.89
2023-01-29T03:56:51.200Z,73.20
2023-01-29T03:59:40.677Z,73.50
2023-01-29T04:02:13.532Z,70.43
2023-01-29T04:04:44.070Z,67.90
2023-01-29T04:07:14.612Z,69.77
2023-01-29T04:09:48.575Z,68.64
2023-01-29T04:12:21.116Z,69.08
2023-01-29T04:14:50.657Z,70.50
2023-01-29T04:17:24.414Z,68.23
2023-01-29T04:19:51.975Z,69.14
2023-01-29T04:22:23.919Z,71.11
2023-01-29T04:24:52.202Z,70.46
2023-01-29T04:27:29.634Z,71.30
2023-01-29T04:30:11.398Z,74.17
2023-01-29T04:32:55.405Z,74.07
2023-01-29T04:35:32.580Z,72.86
2023-01-29T04:38:12.480Z,70.64
2023-01-29T04:40:51.772Z,71.86
2023-01-29T04:43:27.429Z,72.68
2023-01-29T04:46:09.567Z,68.25
2023-01-29T04:48:50.480Z,71.43
2023-01-29T04:51:22.946Z,69.36
2023-01-29T04:53:58.095Z,70.61
2023-01-29T04:56:32.504Z,70.39
2023-01-29T04:59:05.654Z,71.20
2023-01-29T05:01:36.400Z,71.53
2023-01-29T05:04:08.507Z,73.09
2023-01-29T05:06:37.939Z,71.13
2023-01-29T05:09:05.599Z,70.32
2023-01-29T05:11:34.717Z,71.06
2023-01-29T05:14:04.591Z,72.36
2023-01-29T05:16:42.070Z,72.15
2023-01-29T05:19:14.714Z,70.48
2023-01-29T05:21:45.335Z,71.60
2023-01-29T05:24:15.712Z,71.88
2023-01-29T05:27:01.274Z,71.06
2023-01-29T05:29:28.812Z,72.36
2023-01-29T05:31:56.367Z,70.67
2023-01-29T05:34:25.266Z,71.80
2023-01-29T05:36:52.978Z,70.74
2023-01-29T05:39:20.816Z,71.11
2023-01-29T05:41:48.381Z,69.86
2023-01-29T05:44:15.880Z,69.64
2023-01-29T05:46:43.825Z,69.25
2023-01-29T05:49:11.615Z,70.13
2023-01-29T05:51:40.477Z,68.44
2023-01-29T05:54:07.979Z,68.18
2023-01-29T05:56:35.573Z,69.37
2023-01-29T05:59:03.072Z,71.09
2023-01-29T06:01:30.667Z,69.18
2023-01-29T06:03:58.161Z,69.11
2023-01-29T06:06:25.674Z,70.77
2023-01-29T06:08:54.488Z,72.15
2023-01-29T06:11:21.995Z,72.77
2023-01-29T06:13:49.539Z,71.89
2023-01-29T06:16:17.178Z,69.62
2023-01-29T06:18:44.708Z,70.75
2023-01-29T06:21:14.622Z,73.10
2023-01-29T06:23:42.460Z,72.35
2023-01-29T06:26:13.460Z,69.13
2023-01-29T06:28:41.207Z,70.51
2023-01-29T06:31:27.469Z,71.57
2023-01-29T06:33:56.952Z,71.26
2023-01-29T06:36:24.654Z,71.63
2023-01-29T06:38:52.173Z,70.55
2023-01-29T06:41:25.145Z,68.54
2023-01-29T06:43:53.136Z,68.89
2023-01-29T06:46:20.825Z,69.22
2023-01-29T06:48:48.331Z,70.66
2023-01-29T06:51:15.863Z,70.78
2023-01-29T06:53:45.864Z,71.43
2023-01-29T06:56:13.847Z,72.40
2023-01-29T06:58:43.576Z,73.47
2023-01-29T07:01:25.472Z,72.49
2023-01-29T07:04:00.579Z,72.38
2023-01-29T07:06:29.252Z,72.67
2023-01-29T07:08:57.087Z,73.66
2023-01-29T07:11:24.673Z,73.99
2023-01-29T07:13:53.570Z,74.31
2023-01-29T07:16:21.100Z,74.15
2023-01-29T07:18:48.632Z,73.73
2023-01-29T07:21:16.387Z,73.62
2023-01-29T07:23:44.059Z,73.90
2023-01-29T07:26:12.206Z,72.68
2023-01-29T07:28:40.657Z,72.53
2023-01-29T07:31:12.592Z,71.39
2023-01-29T07:33:40.163Z,71.02
2023-01-29T07:36:09.230Z,72.50
2023-01-29T07:38:36.911Z,71.58
2023-01-29T07:41:04.765Z,72.14
2023-01-29T07:43:32.357Z,73.34
2023-01-29T07:46:03.283Z,73.78
2023-01-29T07:48:32.208Z,71.71
2023-01-29T07:51:00.112Z,72.08
2023-01-29T07:53:28.304Z,71.64
2023-01-29T07:55:56.107Z,70.47
2023-01-29T07:58:23.649Z,72.69
2023-01-29T08:00:51.258Z,72.66
2023-01-29T08:03:20.769Z,73.65
2023-01-29T08:05:50.098Z,72.46
2023-01-29T08:08:19.275Z,73.40
2023-01-29T08:10:46.846Z,73.03
2023-01-29T08:13:14.434Z,73.69
2023-01-29T08:15:44.891Z,73.59
2023-01-29T08:18:13.192Z,71.12
2023-01-29T08:20:40.966Z,70.66
2023-01-29T08:23:17.364Z,71.39
2023-01-29T08:25:45.338Z,69.57
2023-01-29T08:28:12.963Z,69.31
2023-01-29T08:30:40.616Z,68.67
2023-01-29T08:33:08.310Z,70.74
2023-01-29T08:35:35.903Z,71.59
2023-01-29T08:38:05.521Z,71.84
2023-01-29T08:40:35.605Z,71.49
2023-01-29T08:43:06.277Z,70.49
2023-01-29T08:45:37.624Z,69.05
2023-01-29T08:48:05.756Z,68.32
2023-01-29T08:50:34.910Z,71.10
2023-01-29T08:53:04.154Z,71.40
2023-01-29T08:55:31.653Z,72.17
2023-01-29T08:58:00.538Z,70.00
2023-01-29T09:00:28.150Z,70.29
2023-01-29T09:02:55.667Z,69.82
2023-01-29T09:05:23.210Z,68.14
2023-01-29T09:07:52.634Z,67.44
2023-01-29T09:10:21.088Z,68.52
2023-01-29T09:12:48.607Z,69.00
2023-01-29T09:15:18.065Z,67.78
2023-01-29T09:17:45.846Z,68.28
2023-01-29T09:20:13.581Z,68.67
2023-01-29T09:22:41.143Z,67.65
2023-01-29T09:25:10.731Z,67.71
2023-01-29T09:27:38.363Z,66.77
2023-01-29T09:30:07.608Z,65.67
2023-01-29T09:32:53.941Z,67.76
2023-01-29T09:35:22.383Z,69.05
2023-01-29T09:37:50.243Z,69.34
2023-01-29T09:40:27.064Z,66.88
2023-01-29T09:43:01.951Z,66.28
2023-01-29T09:45:30.291Z,67.94
2023-01-29T09:48:01.502Z,69.06
2023-01-29T09:50:33.334Z,69.49
2023-01-29T09:53:06.181Z,70.33
2023-01-29T09:55:36.347Z,70.12
2023-01-29T09:58:12.774Z,66.73
2023-01-29T10:00:50.193Z,67.65
2023-01-29T10:03:33.723Z,65.61
2023-01-29T10:06:16.490Z,66.32
2023-01-29T10:09:16.168Z,69.29
2023-01-29T10:11:50.810Z,70.48
2023-01-29T10:14:27.093Z,70.95
2023-01-29T10:17:10.168Z,67.33
2023-01-29T10:19:53.842Z,66.32
2023-01-29T10:22:33.975Z,65.81
2023-01-29T10:25:04.527Z,68.64
2023-01-29T10:27:34.583Z,67.86
2023-01-29T10:30:09.619Z,65.93
2023-01-29T10:32:38.587Z,66.99
2023-01-29T10:35:18.827Z,66.99
2023-01-29T10:37:46.698Z,67.86
2023-01-29T10:40:21.583Z,66.98
2023-01-29T10:42:58.365Z,68.32
2023-01-29T10:45:34.716Z,66.37
2023-01-29T10:48:25.342Z,67.75
2023-01-29T10:51:02.329Z,68.89
2023-01-29T10:53:49.877Z,69.49
2023-01-29T10:56:34.125Z,66.66
2023-01-29T10:59:05.366Z,66.94
2023-01-29T11:01:33.127Z,67.46
2023-01-29T11:04:04.068Z,68.56
2023-01-29T11:06:34.197Z,69.53
2023-01-29T11:09:09.024Z,66.12
2023-01-29T11:11:42.687Z,67.46
2023-01-29T11:14:15.954Z,68.14
2023-01-29T11:16:45.578Z,67.17
2023-01-29T11:19:13.650Z,66.81
2023-01-29T11:21:59.092Z,65.90
2023-01-29T11:24:26.958Z,65.77
2023-01-29T11:26:58.123Z,64.50
2023-01-29T11:29:34.796Z,64.85
2023-01-29T11:32:06.030Z,66.90
2023-01-29T11:34:33.615Z,66.76
2023-01-29T11:37:04.583Z,67.18
2023-01-29T11:39:33.414Z,66.69
2023-01-29T11:42:03.681Z,64.95
2023-01-29T11:44:33.787Z,65.60
2023-01-29T11:47:12.980Z,63.36
2023-01-29T11:49:45.223Z,66.18
2023-01-29T11:52:16.460Z,66.76
2023-01-29T11:54:48.363Z,67.27
2023-01-29T11:57:25.301Z,66.82
2023-01-29T11:59:54.374Z,66.72
2023-01-29T12:02:28.170Z,63.63
2023-01-29T12:04:59.669Z,64.00
2023-01-29T12:07:29.204Z,66.15
2023-01-29T12:09:58.813Z,66.09
2023-01-29T12:12:33.196Z,66.05
2023-01-29T12:15:20.016Z,66.52
2023-01-29T12:17:54.888Z,66.67
2023-01-29T12:20:28.589Z,63.90
2023-01-29T12:23:05.732Z,66.58
2023-01-29T12:25:45.912Z,65.18
2023-01-29T12:28:37.025Z,65.25
2023-01-29T12:31:17.040Z,60.69
2023-01-29T12:33:52.313Z,63.58
2023-01-29T12:36:25.951Z,63.84
2023-01-29T12:38:55.680Z,63.45
2023-01-29T12:41:33.789Z,61.82
2023-01-29T12:44:08.039Z,63.44
2023-01-29T12:46:41.049Z,63.82
2023-01-29T12:49:15.634Z,64.89
2023-01-29T12:51:50.859Z,64.81
2023-01-29T12:54:24.413Z,64.36
2023-01-29T12:56:56.978Z,64.54
2023-01-29T12:59:31.402Z,66.11
2023-01-29T13:02:03.539Z,63.71
2023-01-29T13:04:38.881Z,65.37
2023-01-29T13:07:14.730Z,65.60
2023-01-29T13:09:47.225Z,65.72
2023-01-29T13:12:17.964Z,65.84
2023-01-29T13:14:49.936Z,63.91
2023-01-29T13:17:24.276Z,63.20
2023-01-29T13:19:55.289Z,64.44
2023-01-29T13:22:26.664Z,64.67
2023-01-29T13:25:04.638Z,62.56
2023-01-29T13:27:35.365Z,65.48
2023-01-29T13:30:03.751Z,65.49
2023-01-29T13:32:33.055Z,65.62
2023-01-29T13:35:03.989Z,66.17
2023-01-29T13:37:34.725Z,66.38
2023-01-29T13:40:06.432Z,66.23
2023-01-29T13:42:43.344Z,66.82
2023-01-29T13:45:21.147Z,62.63
2023-01-29T13:47:50.534Z,63.47
2023-01-29T13:50:26.830Z,62.83
2023-01-29T13:52:56.855Z,63.28
2023-01-29T13:55:31.302Z,64.92
2023-01-29T13:58:01.371Z,65.59
2023-01-29T14:01:00.398Z,67.06
2023-01-29T14:04:04.863Z,64.84
2023-01-29T14:06:49.896Z,66.00
2023-01-29T14:09:57.905Z,63.34
2023-01-29T14:12:44.182Z,65.59
2023-01-29T14:15:32.855Z,68.46
2023-01-29T14:18:16.826Z,65.36
2023-01-29T14:20:54.819Z,67.33
2023-01-29T14:23:29.752Z,64.35
2023-01-29T14:25:59.565Z,65.48
2023-01-29T14:28:31.473Z,65.62
2023-01-29T14:30:59.773Z,67.01
2023-01-29T14:33:36.032Z,65.75
2023-01-29T14:36:10.276Z,64.23
2023-01-29T14:38:38.432Z,63.40
2023-01-29T14:41:15.912Z,62.58
2023-01-29T14:43:44.870Z,62.59
2023-01-29T14:46:42.201Z,63.53
2023-01-29T14:49:10.418Z,64.29
2023-01-29T14:51:42.847Z,63.09
2023-01-29T14:54:23.637Z,62.48
2023-01-29T14:56:59.841Z,62.57
2023-01-29T14:59:34.509Z,63.86
2023-01-29T15:02:11.457Z,65.74
2023-01-29T15:04:44.988Z,66.68
2023-01-29T15:07:22.058Z,66.56
2023-01-29T15:09:57.226Z,63.17
2023-01-29T15:12:34.041Z,63.52
2023-01-29T15:15:08.818Z,63.73
2023-01-29T15:17:43.276Z,66.21
2023-01-29T15:20:32.141Z,68.96
2023-01-29T15:23:00.088Z,66.86
2023-01-29T15:25:30.608Z,66.01
2023-01-29T15:27:59.744Z,66.97
2023-01-29T15:30:33.785Z,67.92
2023-01-29T15:33:03.090Z,66.17
2023-01-29T15:35:34.641Z,67.32
2023-01-29T15:38:05.132Z,66.21
2023-01-29T15:40:32.908Z,67.44
2023-01-29T15:43:00.894Z,67.71
2023-01-29T15:45:32.059Z,68.21
2023-01-29T15:48:06.557Z,69.07
2023-01-29T15:50:37.062Z,68.33
2023-01-29T15:53:08.720Z,69.10
2023-01-29T15:55:36.915Z,67.92
2023-01-29T15:58:05.236Z,67.39
2023-01-29T16:00:34.218Z,67.86
2023-01-29T16:03:01.997Z,67.70
2023-01-29T16:05:33.036Z,68.71
2023-01-29T16:08:01.705Z,66.37
2023-01-29T16:10:30.991Z,68.22
2023-01-29T16:12:59.483Z,68.25
2023-01-29T16:15:33.379Z,69.31
2023-01-29T16:18:04.623Z,69.42
2023-01-29T16:20:37.119Z,68.05
2023-01-29T16:23:06.152Z,69.00
2023-01-29T16:25:35.746Z,68.44
2023-01-29T16:28:06.304Z,68.60
2023-01-29T16:30:34.036Z,69.23
2023-01-29T16:33:04.872Z,66.17
2023-01-29T16:35:32.692Z,65.39
2023-01-29T16:38:03.987Z,65.95
2023-01-29T16:40:33.501Z,66.33
2023-01-29T16:43:46.686Z,67.60
2023-01-29T16:46:20.808Z,67.58
2023-01-29T16:48:49.799Z,66.30
2023-01-29T16:51:23.628Z,68.43
2023-01-29T16:53:56.884Z,69.06
2023-01-29T16:56:25.720Z,69.04
2023-01-29T16:58:55.295Z,70.08
2023-01-29T17:01:24.989Z,69.62
2023-01-29T17:04:00.532Z,70.23
2023-01-29T17:06:29.036Z,69.24
2023-01-29T17:08:56.851Z,68.95
2023-01-29T17:11:28.844Z,68.99
2023-01-29T17:13:57.870Z,69.56
2023-01-29T17:16:28.635Z,70.09
2023-01-29T17:18:57.767Z,69.35
2023-01-29T17:21:25.787Z,68.35
2023-01-29T17:23:54.181Z,67.25
2023-01-29T17:26:22.589Z,66.99
2023-01-29T17:28:52.285Z,66.18
2023-01-29T17:31:19.897Z,66.18
2023-01-29T17:33:48.406Z,66.15
2023-01-29T17:36:18.916Z,66.20
2023-01-29T17:38:46.958Z,66.36
2023-01-29T17:41:19.561Z,66.32
2023-01-29T17:43:47.133Z,66.57
2023-01-29T17:46:16.573Z,66.16
2023-01-29T17:48:44.234Z,66.48
2023-01-29T17:51:14.379Z,66.90
2023-01-29T17:53:45.988Z,66.86
2023-01-29T17:56:18.515Z,66.93
2023-01-29T17:58:46.280Z,66.81
2023-01-29T18:01:13.795Z,67.12
2023-01-29T18:03:41.628Z,67.20
2023-01-29T18:06:10.299Z,67.29
2023-01-29T18:08:40.438Z,67.72
2023-01-29T18:11:13.261Z,67.41
2023-01-29T18:13:41.966Z,67.84
2023-01-29T18:16:09.664Z,67.50
2023-01-29T18:18:37.339Z,67.29
2023-01-29T18:21:05.321Z,67.08
2023-01-29T18:23:32.832Z,67.23
2023-01-29T18:26:00.787Z,67.39
2023-01-29T18:28:29.727Z,67.54
2023-01-29T18:30:57.305Z,67.45
2023-01-29T18:33:25.836Z,67.88
2023-01-29T18:35:54.964Z,68.17
2023-01-29T18:38:22.759Z,68.13
2023-01-29T18:40:50.868Z,67.73
2023-01-29T18:43:18.534Z,68.08
2023-01-29T18:45:48.700Z,67.92
2023-01-29T18:48:16.191Z,67.98
2023-01-29T18:50:43.683Z,68.41
2023-01-29T18:53:11.215Z,68.14
2023-01-29T18:55:38.769Z,68.38
2023-01-29T18:58:27.870Z,68.43
2023-01-29T19:00:55.294Z,68.58
2023-01-29T19:03:22.911Z,68.85
2023-01-29T19:05:50.451Z,68.46
2023-01-29T19:08:18.435Z,68.78
2023-01-29T19:10:46.083Z,68.99
2023-01-29T19:13:13.864Z,68.68
2023-01-29T19:15:43.971Z,68.61
2023-01-29T19:18:14.631Z,68.66
2023-01-29T19:20:42.821Z,68.32
2023-01-29T19:23:10.714Z,69.50
2023-01-29T19:25:39.396Z,69.98
2023-01-29T19:28:07.982Z,70.17
2023-01-29T19:30:35.999Z,70.66
2023-01-29T19:33:04.216Z,69.41
2023-01-29T19:35:33.573Z,68.97
2023-01-29T19:38:01.320Z,68.77
2023-01-29T19:40:28.888Z,68.37
2023-01-29T19:42:58.216Z,68.33
2023-01-29T19:45:38.582Z,68.04
2023-01-29T19:48:14.753Z,68.53
2023-01-29T19:50:43.788Z,68.63
2023-01-29T19:53:11.587Z,68.19
2023-01-29T19:55:39.223Z,68.17
2023-01-29T19:58:06.815Z,68.52
2023-01-29T20:00:34.478Z,68.26
2023-01-29T20:03:02.047Z,68.43
2023-01-29T20:05:29.675Z,68.83
2023-01-29T20:07:58.703Z,69.95
2023-01-29T20:10:27.649Z,69.26
2023-01-29T20:12:55.297Z,69.00
2023-01-29T20:15:23.320Z,69.73
2023-01-29T20:17:51.116Z,68.89
2023-01-29T20:20:19.026Z,69.76
2023-01-29T20:22:46.954Z,70.73
2023-01-29T20:25:16.695Z,69.92
2023-01-29T20:27:44.276Z,69.43
2023-01-29T20:30:12.848Z,70.49
2023-01-29T20:32:40.468Z,70.87
2023-01-29T20:35:09.457Z,69.79
2023-01-29T20:37:36.948Z,69.13
2023-01-29T20:40:04.996Z,69.54
2023-01-29T20:42:33.846Z,68.92
2023-01-29T20:45:01.389Z,68.68
2023-01-29T20:47:28.899Z,68.43
2023-01-29T20:49:56.447Z,68.45
2023-01-29T20:52:24.037Z,68.54
2023-01-29T20:54:51.766Z,68.71
2023-01-29T20:57:19.502Z,68.71
2023-01-29T20:59:48.406Z,68.52
2023-01-29T21:02:15.981Z,68.61
2023-01-29T21:04:44.422Z,69.00
2023-01-29T21:07:12.261Z,68.97
2023-01-29T21:09:40.066Z,69.00
2023-01-29T21:12:07.722Z,69.25
2023-01-29T21:14:35.591Z,69.30
2023-01-29T21:17:04.821Z,69.62
2023-01-29T21:19:32.977Z,69.65
2023-01-29T21:22:00.480Z,69.71
2023-01-29T21:24:28.122Z,69.82
2023-01-29T21:26:55.791Z,70.23
2023-01-29T21:29:23.349Z,70.78
2023-01-29T21:31:50.997Z,70.38
2023-01-29T21:34:20.179Z,70.15
2023-01-29T21:36:47.722Z,70.38
2023-01-29T21:39:19.624Z,70.15
2023-01-29T21:42:02.545Z,70.44
2023-01-29T21:44:30.540Z,70.49
2023-01-29T21:46:58.222Z,69.93
2023-01-29T21:49:27.747Z,70.13
2023-01-29T21:51:55.480Z,70.24
2023-01-29T21:54:23.092Z,70.46
2023-01-29T21:56:50.721Z,70.76
2023-01-29T21:59:18.267Z,71.18
2023-01-29T22:01:45.769Z,71.86
2023-01-29T22:04:13.473Z,71.24
2023-01-29T22:06:43.295Z,70.93
2023-01-29T22:09:10.848Z,70.36
2023-01-29T22:11:38.566Z,69.74
2023-01-29T22:14:06.082Z,69.84
2023-01-29T22:16:33.669Z,69.85
2023-01-29T22:19:01.548Z,70.12
2023-01-29T22:21:29.157Z,70.39
2023-01-29T22:23:58.137Z,70.44
2023-01-29T22:26:25.808Z,70.48
2023-01-29T22:28:53.406Z,70.53
2023-01-29T22:31:21.078Z,70.41
2023-01-29T22:33:48.671Z,70.10
2023-01-29T22:36:16.234Z,70.13
2023-01-29T22:38:43.847Z,70.08
2023-01-29T22:41:13.481Z,70.34
2023-01-29T22:43:41.376Z,70.59
2023-01-29T22:46:09.628Z,70.41
2023-01-29T22:48:37.551Z,70.58
2023-01-29T22:51:11.938Z,70.64
2023-01-29T22:53:40.994Z,70.52
2023-01-29T22:56:10.074Z,71.22
2023-01-29T22:58:39.139Z,71.91
2023-01-29T23:01:06.751Z,70.84
2023-01-29T23:03:34.797Z,70.17
2023-01-29T23:06:02.557Z,70.49
2023-01-29T23:08:30.375Z,70.21
2023-01-29T23:11:13.710Z,70.60
2023-01-29T23:13:43.659Z,70.61
2023-01-29T23:16:11.742Z,70.89
2023-01-29T23:18:39.662Z,71.07
2023-01-29T23:21:07.412Z,71.42
2023-01-29T23:23:37.125Z,71.53
2023-01-29T23:26:24.304Z,72.06
2023-01-29T23:28:53.368Z,72.60
2023-01-29T23:31:20.954Z,72.51
2023-01-29T23:33:48.624Z,72.34
2023-01-29T23:36:16.310Z,72.67
2023-01-29T23:38:44.075Z,73.17
2023-01-29T23:41:11.731Z,72.28
2023-01-29T23:43:39.414Z,72.91
2023-01-29T23:46:08.508Z,73.76
2023-01-29T23:48:36.055Z,73.30
2023-01-29T23:51:03.702Z,71.74
2023-01-29T23:53:31.266Z,73.11
2023-01-29T23:56:00.837Z,73.28
2023-01-29T23:58:29.063Z,73.06
